sensor_id;sensor_type;location;lat;lon;timestamp;P1;durP1;ratioP1;P2;durP2;ratioP2
48853;SDS011;34673;52.808;17.856;2022-08-01T00:16:52;4.78;;;2.70;;
48853;SDS011;34673;52.808;17.856;2022-08-01T00:19:20;5.03;;;2.35;;
48853;SDS011;34673;52.808;17.856;2022-08-01T00:21:47;4.32;;;2.28;;
48853;SDS011;34673;52.808;17.856;2022-08-01T00:24:28;5.63;;;2.50;;
48853;SDS011;34673;52.808;17.856;2022-08-01T00:26:55;4.30;;;2.33;;
48853;SDS011;34673;52.808;17.856;2022-08-01T00:29:22;6.00;;;2.70;;
48853;SDS011;34673;52.808;17.856;2022-08-01T00:32:10;4.40;;;2.55;;
48853;SDS011;34673;52.808;17.856;2022-08-01T00:34:38;4.35;;;2.38;;
48853;SDS011;34673;52.808;17.856;2022-08-01T00:37:06;4.70;;;2.35;;
48853;SDS011;34673;52.808;17.856;2022-08-01T00:39:33;4.93;;;2.78;;
48853;SDS011;34673;52.808;17.856;2022-08-01T00:42:07;5.50;;;2.60;;
48853;SDS011;34673;52.808;17.856;2022-08-01T00:44:36;4.85;;;2.35;;
48853;SDS011;34673;52.808;17.856;2022-08-01T00:47:04;5.35;;;2.70;;
48853;SDS011;34673;52.808;17.856;2022-08-01T00:49:32;5.53;;;2.30;;
48853;SDS011;34673;52.808;17.856;2022-08-01T00:52:00;3.10;;;2.25;;
48853;SDS011;34673;52.808;17.856;2022-08-01T00:54:29;4.68;;;2.33;;
48853;SDS011;34673;52.808;17.856;2022-08-01T00:56:57;4.40;;;2.45;;
48853;SDS011;34673;52.808;17.856;2022-08-01T00:59:26;5.43;;;2.30;;
48853;SDS011;34673;52.808;17.856;2022-08-01T01:01:54;4.25;;;2.17;;
48853;SDS011;34673;52.808;17.856;2022-08-01T01:04:22;6.28;;;2.20;;
48853;SDS011;34673;52.808;17.856;2022-08-01T01:09:52;4.15;;;2.30;;
48853;SDS011;34673;52.808;17.856;2022-08-01T01:15:06;3.83;;;2.30;;
48853;SDS011;34673;52.808;17.856;2022-08-01T01:17:38;3.10;;;2.10;;
48853;SDS011;34673;52.808;17.856;2022-08-01T01:20:17;3.70;;;2.30;;
48853;SDS011;34673;52.808;17.856;2022-08-01T01:22:59;5.15;;;2.35;;
48853;SDS011;34673;52.808;17.856;2022-08-01T01:28:27;4.90;;;2.42;;
48853;SDS011;34673;52.808;17.856;2022-08-01T01:31:02;5.97;;;2.33;;
48853;SDS011;34673;52.808;17.856;2022-08-01T01:33:36;5.30;;;1.90;;
48853;SDS011;34673;52.808;17.856;2022-08-01T01:36:13;3.78;;;1.98;;
48853;SDS011;34673;52.808;17.856;2022-08-01T01:41:12;4.90;;;1.80;;
48853;SDS011;34673;52.808;17.856;2022-08-01T01:46:11;4.05;;;1.95;;
48853;SDS011;34673;52.808;17.856;2022-08-01T01:48:43;4.70;;;2.40;;
48853;SDS011;34673;52.808;17.856;2022-08-01T01:51:12;4.05;;;2.10;;
48853;SDS011;34673;52.808;17.856;2022-08-01T01:53:40;3.85;;;2.25;;
48853;SDS011;34673;52.808;17.856;2022-08-01T01:56:08;3.47;;;2.20;;
48853;SDS011;34673;52.808;17.856;2022-08-01T01:58:36;3.58;;;2.38;;
48853;SDS011;34673;52.808;17.856;2022-08-01T02:01:05;4.22;;;1.95;;
48853;SDS011;34673;52.808;17.856;2022-08-01T02:03:40;6.75;;;2.40;;
48853;SDS011;34673;52.808;17.856;2022-08-01T02:06:11;4.47;;;2.28;;
48853;SDS011;34673;52.808;17.856;2022-08-01T02:08:41;3.80;;;1.95;;
48853;SDS011;34673;52.808;17.856;2022-08-01T02:11:09;7.65;;;2.22;;
48853;SDS011;34673;52.808;17.856;2022-08-01T02:13:47;5.15;;;2.13;;
48853;SDS011;34673;52.808;17.856;2022-08-01T02:16:21;3.25;;;2.30;;
48853;SDS011;34673;52.808;17.856;2022-08-01T02:18:51;4.13;;;2.28;;
48853;SDS011;34673;52.808;17.856;2022-08-01T02:21:28;8.38;;;2.65;;
48853;SDS011;34673;52.808;17.856;2022-08-01T02:24:13;3.40;;;2.30;;
48853;SDS011;34673;52.808;17.856;2022-08-01T02:26:46;5.13;;;2.40;;
48853;SDS011;34673;52.808;17.856;2022-08-01T02:29:18;4.68;;;2.15;;
48853;SDS011;34673;52.808;17.856;2022-08-01T02:31:49;5.45;;;1.90;;
48853;SDS011;34673;52.808;17.856;2022-08-01T02:34:21;7.03;;;2.13;;
48853;SDS011;34673;52.808;17.856;2022-08-01T02:36:54;3.85;;;2.15;;
48853;SDS011;34673;52.808;17.856;2022-08-01T02:39:23;5.13;;;2.20;;
48853;SDS011;34673;52.808;17.856;2022-08-01T02:41:54;4.35;;;2.33;;
48853;SDS011;34673;52.808;17.856;2022-08-01T02:44:30;4.85;;;2.35;;
48853;SDS011;34673;52.808;17.856;2022-08-01T02:47:01;5.15;;;2.42;;
48853;SDS011;34673;52.808;17.856;2022-08-01T02:49:34;3.67;;;2.55;;
48853;SDS011;34673;52.808;17.856;2022-08-01T02:52:06;4.13;;;2.10;;
48853;SDS011;34673;52.808;17.856;2022-08-01T02:54:37;5.60;;;1.95;;
48853;SDS011;34673;52.808;17.856;2022-08-01T02:57:07;5.57;;;2.50;;
48853;SDS011;34673;52.808;17.856;2022-08-01T02:59:39;5.28;;;2.35;;
48853;SDS011;34673;52.808;17.856;2022-08-01T03:02:10;5.10;;;2.35;;
48853;SDS011;34673;52.808;17.856;2022-08-01T03:04:38;4.65;;;2.20;;
48853;SDS011;34673;52.808;17.856;2022-08-01T03:07:08;3.78;;;2.25;;
48853;SDS011;34673;52.808;17.856;2022-08-01T03:09:38;4.63;;;2.72;;
48853;SDS011;34673;52.808;17.856;2022-08-01T03:12:10;5.78;;;2.45;;
48853;SDS011;34673;52.808;17.856;2022-08-01T03:14:41;4.85;;;2.80;;
48853;SDS011;34673;52.808;17.856;2022-08-01T03:17:13;4.22;;;2.65;;
48853;SDS011;34673;52.808;17.856;2022-08-01T03:19:42;3.53;;;2.45;;
48853;SDS011;34673;52.808;17.856;2022-08-01T03:22:12;4.83;;;2.57;;
48853;SDS011;34673;52.808;17.856;2022-08-01T03:24:43;5.18;;;2.42;;
48853;SDS011;34673;52.808;17.856;2022-08-01T03:27:17;4.38;;;2.88;;
48853;SDS011;34673;52.808;17.856;2022-08-01T03:29:47;5.15;;;2.70;;
48853;SDS011;34673;52.808;17.856;2022-08-01T03:32:16;3.95;;;2.70;;
48853;SDS011;34673;52.808;17.856;2022-08-01T03:34:45;6.78;;;2.80;;
48853;SDS011;34673;52.808;17.856;2022-08-01T03:37:23;6.82;;;3.20;;
48853;SDS011;34673;52.808;17.856;2022-08-01T03:43:02;3.75;;;2.42;;
48853;SDS011;34673;52.808;17.856;2022-08-01T03:45:38;5.60;;;3.25;;
48853;SDS011;34673;52.808;17.856;2022-08-01T03:48:16;4.85;;;3.40;;
48853;SDS011;34673;52.808;17.856;2022-08-01T03:50:48;6.35;;;3.00;;
48853;SDS011;34673;52.808;17.856;2022-08-01T03:53:22;4.05;;;3.10;;
48853;SDS011;34673;52.808;17.856;2022-08-01T03:55:52;4.75;;;3.03;;
48853;SDS011;34673;52.808;17.856;2022-08-01T03:58:22;6.70;;;3.40;;
48853;SDS011;34673;52.808;17.856;2022-08-01T04:00:50;5.65;;;3.70;;
48853;SDS011;34673;52.808;17.856;2022-08-01T04:03:18;4.45;;;2.80;;
48853;SDS011;34673;52.808;17.856;2022-08-01T04:05:46;5.05;;;2.97;;
48853;SDS011;34673;52.808;17.856;2022-08-01T04:08:13;7.28;;;3.10;;
48853;SDS011;34673;52.808;17.856;2022-08-01T04:10:41;6.82;;;3.05;;
48853;SDS011;34673;52.808;17.856;2022-08-01T04:13:08;7.68;;;2.92;;
48853;SDS011;34673;52.808;17.856;2022-08-01T04:15:35;5.40;;;3.30;;
48853;SDS011;34673;52.808;17.856;2022-08-01T04:18:02;5.97;;;2.80;;
48853;SDS011;34673;52.808;17.856;2022-08-01T04:20:29;6.18;;;3.20;;
48853;SDS011;34673;52.808;17.856;2022-08-01T04:22:56;5.00;;;3.05;;
48853;SDS011;34673;52.808;17.856;2022-08-01T04:25:32;5.55;;;2.97;;
48853;SDS011;34673;52.808;17.856;2022-08-01T04:28:01;6.90;;;3.00;;
48853;SDS011;34673;52.808;17.856;2022-08-01T04:30:33;4.43;;;2.80;;
48853;SDS011;34673;52.808;17.856;2022-08-01T04:33:03;4.63;;;2.90;;
48853;SDS011;34673;52.808;17.856;2022-08-01T04:35:34;4.70;;;2.92;;
48853;SDS011;34673;52.808;17.856;2022-08-01T04:38:25;7.65;;;3.15;;
48853;SDS011;34673;52.808;17.856;2022-08-01T04:40:55;3.85;;;2.80;;
48853;SDS011;34673;52.808;17.856;2022-08-01T04:43:35;6.25;;;3.22;;
48853;SDS011;34673;52.808;17.856;2022-08-01T04:46:07;4.15;;;2.58;;
48853;SDS011;34673;52.808;17.856;2022-08-01T04:48:36;4.95;;;2.95;;
48853;SDS011;34673;52.808;17.856;2022-08-01T04:51:11;4.57;;;2.83;;
48853;SDS011;34673;52.808;17.856;2022-08-01T04:53:45;4.55;;;2.90;;
48853;SDS011;34673;52.808;17.856;2022-08-01T04:56:12;4.78;;;3.20;;
48853;SDS011;34673;52.808;17.856;2022-08-01T04:58:41;5.30;;;3.08;;
48853;SDS011;34673;52.808;17.856;2022-08-01T05:01:10;7.30;;;3.03;;
48853;SDS011;34673;52.808;17.856;2022-08-01T05:03:38;5.75;;;2.85;;
48853;SDS011;34673;52.808;17.856;2022-08-01T05:06:05;6.30;;;3.13;;
48853;SDS011;34673;52.808;17.856;2022-08-01T05:08:32;7.78;;;3.15;;
48853;SDS011;34673;52.808;17.856;2022-08-01T05:10:59;4.43;;;3.13;;
48853;SDS011;34673;52.808;17.856;2022-08-01T05:13:27;5.90;;;3.28;;
48853;SDS011;34673;52.808;17.856;2022-08-01T05:15:54;7.10;;;3.13;;
48853;SDS011;34673;52.808;17.856;2022-08-01T05:18:22;5.25;;;2.90;;
48853;SDS011;34673;52.808;17.856;2022-08-01T05:20:54;5.88;;;3.13;;
48853;SDS011;34673;52.808;17.856;2022-08-01T05:23:21;7.88;;;3.55;;
48853;SDS011;34673;52.808;17.856;2022-08-01T05:26:09;9.07;;;3.83;;
48853;SDS011;34673;52.808;17.856;2022-08-01T05:28:40;7.85;;;3.72;;
48853;SDS011;34673;52.808;17.856;2022-08-01T05:31:07;6.35;;;3.35;;
48853;SDS011;34673;52.808;17.856;2022-08-01T05:33:34;6.70;;;4.07;;
48853;SDS011;34673;52.808;17.856;2022-08-01T05:36:02;7.00;;;3.80;;
48853;SDS011;34673;52.808;17.856;2022-08-01T05:38:29;5.82;;;3.90;;
48853;SDS011;34673;52.808;17.856;2022-08-01T05:40:56;7.15;;;4.10;;
48853;SDS011;34673;52.808;17.856;2022-08-01T05:43:23;8.13;;;4.68;;
48853;SDS011;34673;52.808;17.856;2022-08-01T05:45:54;11.93;;;4.68;;
48853;SDS011;34673;52.808;17.856;2022-08-01T05:48:21;6.63;;;3.90;;
48853;SDS011;34673;52.808;17.856;2022-08-01T05:50:48;7.72;;;4.20;;
48853;SDS011;34673;52.808;17.856;2022-08-01T05:53:20;7.63;;;3.95;;
48853;SDS011;34673;52.808;17.856;2022-08-01T05:55:47;8.38;;;3.95;;
48853;SDS011;34673;52.808;17.856;2022-08-01T05:58:14;6.20;;;3.75;;
48853;SDS011;34673;52.808;17.856;2022-08-01T06:00:42;8.13;;;4.20;;
48853;SDS011;34673;52.808;17.856;2022-08-01T06:03:09;7.22;;;3.40;;
48853;SDS011;34673;52.808;17.856;2022-08-01T06:05:37;6.72;;;3.80;;
48853;SDS011;34673;52.808;17.856;2022-08-01T06:08:05;4.82;;;3.60;;
48853;SDS011;34673;52.808;17.856;2022-08-01T06:10:32;8.43;;;4.07;;
48853;SDS011;34673;52.808;17.856;2022-08-01T06:12:59;6.43;;;3.85;;
48853;SDS011;34673;52.808;17.856;2022-08-01T06:15:30;4.85;;;3.30;;
48853;SDS011;34673;52.808;17.856;2022-08-01T06:17:58;7.53;;;3.45;;
48853;SDS011;34673;52.808;17.856;2022-08-01T06:20:26;7.00;;;3.67;;
48853;SDS011;34673;52.808;17.856;2022-08-01T06:22:53;5.85;;;3.78;;
48853;SDS011;34673;52.808;17.856;2022-08-01T06:25:21;6.70;;;3.85;;
48853;SDS011;34673;52.808;17.856;2022-08-01T06:27:49;5.93;;;3.40;;
48853;SDS011;34673;52.808;17.856;2022-08-01T06:30:16;6.85;;;3.30;;
48853;SDS011;34673;52.808;17.856;2022-08-01T06:32:43;6.18;;;3.88;;
48853;SDS011;34673;52.808;17.856;2022-08-01T06:35:10;6.78;;;3.60;;
48853;SDS011;34673;52.808;17.856;2022-08-01T06:37:37;6.38;;;3.65;;
48853;SDS011;34673;52.808;17.856;2022-08-01T06:40:05;4.20;;;3.35;;
48853;SDS011;34673;52.808;17.856;2022-08-01T06:42:40;7.03;;;4.30;;
48853;SDS011;34673;52.808;17.856;2022-08-01T06:45:09;5.43;;;3.60;;
48853;SDS011;34673;52.808;17.856;2022-08-01T06:47:37;7.70;;;3.70;;
48853;SDS011;34673;52.808;17.856;2022-08-01T06:50:07;6.82;;;3.70;;
48853;SDS011;34673;52.808;17.856;2022-08-01T06:55:03;5.47;;;3.88;;
48853;SDS011;34673;52.808;17.856;2022-08-01T06:57:31;7.00;;;3.40;;
48853;SDS011;34673;52.808;17.856;2022-08-01T07:00:01;6.38;;;3.63;;
48853;SDS011;34673;52.808;17.856;2022-08-01T07:02:37;7.03;;;4.28;;
48853;SDS011;34673;52.808;17.856;2022-08-01T07:05:04;5.75;;;3.30;;
48853;SDS011;34673;52.808;17.856;2022-08-01T07:07:32;4.88;;;3.60;;
48853;SDS011;34673;52.808;17.856;2022-08-01T07:09:59;6.03;;;3.70;;
48853;SDS011;34673;52.808;17.856;2022-08-01T07:12:26;5.68;;;4.03;;
48853;SDS011;34673;52.808;17.856;2022-08-01T07:14:53;6.25;;;3.50;;
48853;SDS011;34673;52.808;17.856;2022-08-01T07:17:20;7.47;;;3.95;;
48853;SDS011;34673;52.808;17.856;2022-08-01T07:19:47;6.13;;;3.45;;
48853;SDS011;34673;52.808;17.856;2022-08-01T07:22:15;6.35;;;3.53;;
48853;SDS011;34673;52.808;17.856;2022-08-01T07:24:49;5.53;;;4.05;;
48853;SDS011;34673;52.808;17.856;2022-08-01T07:27:20;6.03;;;4.20;;
48853;SDS011;34673;52.808;17.856;2022-08-01T07:29:51;8.68;;;4.15;;
48853;SDS011;34673;52.808;17.856;2022-08-01T07:32:19;7.60;;;4.25;;
48853;SDS011;34673;52.808;17.856;2022-08-01T07:34:46;6.30;;;4.78;;
48853;SDS011;34673;52.808;17.856;2022-08-01T07:37:13;7.70;;;4.63;;
48853;SDS011;34673;52.808;17.856;2022-08-01T07:39:40;8.00;;;4.80;;
48853;SDS011;34673;52.808;17.856;2022-08-01T07:42:07;7.93;;;5.18;;
48853;SDS011;34673;52.808;17.856;2022-08-01T07:44:35;7.30;;;5.38;;
48853;SDS011;34673;52.808;17.856;2022-08-01T07:47:03;8.63;;;4.75;;
48853;SDS011;34673;52.808;17.856;2022-08-01T07:49:31;8.70;;;5.22;;
48853;SDS011;34673;52.808;17.856;2022-08-01T07:52:05;7.35;;;5.10;;
48853;SDS011;34673;52.808;17.856;2022-08-01T07:54:32;8.57;;;5.40;;
48853;SDS011;34673;52.808;17.856;2022-08-01T07:57:00;6.53;;;4.60;;
48853;SDS011;34673;52.808;17.856;2022-08-01T07:59:28;7.53;;;4.97;;
48853;SDS011;34673;52.808;17.856;2022-08-01T08:01:56;7.10;;;4.78;;
48853;SDS011;34673;52.808;17.856;2022-08-01T08:04:23;6.97;;;5.15;;
48853;SDS011;34673;52.808;17.856;2022-08-01T08:06:51;7.68;;;5.20;;
48853;SDS011;34673;52.808;17.856;2022-08-01T08:09:20;7.40;;;5.28;;
48853;SDS011;34673;52.808;17.856;2022-08-01T08:11:47;8.52;;;5.25;;
48853;SDS011;34673;52.808;17.856;2022-08-01T08:14:15;8.30;;;5.68;;
48853;SDS011;34673;52.808;17.856;2022-08-01T08:16:43;8.13;;;5.10;;
48853;SDS011;34673;52.808;17.856;2022-08-01T08:19:11;7.93;;;5.63;;
48853;SDS011;34673;52.808;17.856;2022-08-01T08:21:38;6.65;;;5.43;;
48853;SDS011;34673;52.808;17.856;2022-08-01T08:24:06;8.38;;;5.32;;
48853;SDS011;34673;52.808;17.856;2022-08-01T08:26:53;8.63;;;5.40;;
48853;SDS011;34673;52.808;17.856;2022-08-01T08:29:23;7.93;;;5.25;;
48853;SDS011;34673;52.808;17.856;2022-08-01T08:31:54;7.82;;;5.15;;
48853;SDS011;34673;52.808;17.856;2022-08-01T08:34:23;10.32;;;6.00;;
48853;SDS011;34673;52.808;17.856;2022-08-01T08:36:50;8.10;;;5.90;;
48853;SDS011;34673;52.808;17.856;2022-08-01T08:39:19;7.93;;;5.25;;
48853;SDS011;34673;52.808;17.856;2022-08-01T08:41:47;8.38;;;5.90;;
48853;SDS011;34673;52.808;17.856;2022-08-01T08:44:15;8.32;;;5.68;;
48853;SDS011;34673;52.808;17.856;2022-08-01T08:46:45;8.35;;;5.65;;
48853;SDS011;34673;52.808;17.856;2022-08-01T08:49:16;8.32;;;5.70;;
48853;SDS011;34673;52.808;17.856;2022-08-01T08:51:50;8.48;;;4.90;;
48853;SDS011;34673;52.808;17.856;2022-08-01T08:54:20;7.10;;;5.05;;
48853;SDS011;34673;52.808;17.856;2022-08-01T08:56:58;8.07;;;5.25;;
48853;SDS011;34673;52.808;17.856;2022-08-01T08:59:26;9.75;;;5.72;;
48853;SDS011;34673;52.808;17.856;2022-08-01T09:01:55;7.93;;;5.10;;
48853;SDS011;34673;52.808;17.856;2022-08-01T09:04:24;10.30;;;5.93;;
48853;SDS011;34673;52.808;17.856;2022-08-01T09:06:53;9.48;;;6.22;;
48853;SDS011;34673;52.808;17.856;2022-08-01T09:09:21;7.22;;;4.93;;
48853;SDS011;34673;52.808;17.856;2022-08-01T09:11:49;10.90;;;5.65;;
48853;SDS011;34673;52.808;17.856;2022-08-01T09:14:32;7.72;;;5.07;;
48853;SDS011;34673;52.808;17.856;2022-08-01T09:17:03;6.65;;;4.78;;
48853;SDS011;34673;52.808;17.856;2022-08-01T09:19:41;6.60;;;4.80;;
48853;SDS011;34673;52.808;17.856;2022-08-01T09:22:17;8.07;;;4.57;;
48853;SDS011;34673;52.808;17.856;2022-08-01T09:25:01;8.07;;;5.80;;
48853;SDS011;34673;52.808;17.856;2022-08-01T09:27:33;10.65;;;5.85;;
48853;SDS011;34673;52.808;17.856;2022-08-01T09:32:59;10.10;;;6.15;;
48853;SDS011;34673;52.808;17.856;2022-08-01T09:35:36;9.48;;;5.68;;
48853;SDS011;34673;52.808;17.856;2022-08-01T09:38:13;10.10;;;5.50;;
48853;SDS011;34673;52.808;17.856;2022-08-01T09:40:48;8.70;;;5.40;;
48853;SDS011;34673;52.808;17.856;2022-08-01T09:43:16;8.73;;;4.93;;
48853;SDS011;34673;52.808;17.856;2022-08-01T09:45:44;7.97;;;5.22;;
48853;SDS011;34673;52.808;17.856;2022-08-01T09:48:16;8.27;;;5.47;;
48853;SDS011;34673;52.808;17.856;2022-08-01T09:50:45;9.15;;;5.45;;
48853;SDS011;34673;52.808;17.856;2022-08-01T09:53:14;9.18;;;5.40;;
48853;SDS011;34673;52.808;17.856;2022-08-01T09:56:07;6.57;;;4.93;;
48853;SDS011;34673;52.808;17.856;2022-08-01T09:58:55;6.10;;;4.80;;
48853;SDS011;34673;52.808;17.856;2022-08-01T10:01:28;25.73;;;20.05;;
48853;SDS011;34673;52.808;17.856;2022-08-01T10:04:21;7.50;;;4.50;;
48853;SDS011;34673;52.808;17.856;2022-08-01T10:06:51;6.93;;;4.28;;
48853;SDS011;34673;52.808;17.856;2022-08-01T10:09:32;6.63;;;4.38;;
48853;SDS011;34673;52.808;17.856;2022-08-01T10:12:07;10.32;;;5.97;;
48853;SDS011;34673;52.808;17.856;2022-08-01T10:14:41;10.18;;;4.65;;
48853;SDS011;34673;52.808;17.856;2022-08-01T10:17:13;5.40;;;3.85;;
48853;SDS011;34673;52.808;17.856;2022-08-01T10:19:45;8.57;;;4.45;;
48853;SDS011;34673;52.808;17.856;2022-08-01T10:22:16;5.35;;;3.83;;
48853;SDS011;34673;52.808;17.856;2022-08-01T10:24:47;6.45;;;3.75;;
48853;SDS011;34673;52.808;17.856;2022-08-01T10:27:16;5.30;;;3.67;;
48853;SDS011;34673;52.808;17.856;2022-08-01T10:30:02;5.50;;;3.55;;
48853;SDS011;34673;52.808;17.856;2022-08-01T10:32:47;5.15;;;3.58;;
48853;SDS011;34673;52.808;17.856;2022-08-01T10:35:16;5.82;;;3.60;;
48853;SDS011;34673;52.808;17.856;2022-08-01T10:38:04;5.63;;;3.40;;
48853;SDS011;34673;52.808;17.856;2022-08-01T10:40:39;6.07;;;3.35;;
48853;SDS011;34673;52.808;17.856;2022-08-01T10:43:13;4.70;;;3.45;;
48853;SDS011;34673;52.808;17.856;2022-08-01T10:45:48;6.75;;;3.55;;
48853;SDS011;34673;52.808;17.856;2022-08-01T10:51:05;5.82;;;3.50;;
48853;SDS011;34673;52.808;17.856;2022-08-01T10:53:53;6.63;;;3.72;;
48853;SDS011;34673;52.808;17.856;2022-08-01T10:56:22;4.10;;;3.33;;
48853;SDS011;34673;52.808;17.856;2022-08-01T10:59:02;4.75;;;3.22;;
48853;SDS011;34673;52.808;17.856;2022-08-01T11:01:37;5.32;;;3.78;;
48853;SDS011;34673;52.808;17.856;2022-08-01T11:04:13;8.73;;;3.63;;
48853;SDS011;34673;52.808;17.856;2022-08-01T11:06:52;5.13;;;3.30;;
48853;SDS011;34673;52.808;17.856;2022-08-01T11:09:41;3.80;;;2.50;;
48853;SDS011;34673;52.808;17.856;2022-08-01T11:12:17;4.40;;;2.88;;
48853;SDS011;34673;52.808;17.856;2022-08-01T11:20:35;4.45;;;2.72;;
48853;SDS011;34673;52.808;17.856;2022-08-01T11:28:26;4.47;;;2.60;;
48853;SDS011;34673;52.808;17.856;2022-08-01T11:38:42;4.60;;;2.53;;
48853;SDS011;34673;52.808;17.856;2022-08-01T11:41:27;3.72;;;2.53;;
48853;SDS011;34673;52.808;17.856;2022-08-01T11:44:08;4.28;;;2.90;;
48853;SDS011;34673;52.808;17.856;2022-08-01T11:54:57;3.65;;;2.47;;
48853;SDS011;34673;52.808;17.856;2022-08-01T11:57:36;8.60;;;2.95;;
48853;SDS011;34673;52.808;17.856;2022-08-01T12:00:12;5.93;;;2.83;;
48853;SDS011;34673;52.808;17.856;2022-08-01T12:02:44;4.18;;;2.40;;
48853;SDS011;34673;52.808;17.856;2022-08-01T12:05:13;4.38;;;2.30;;
48853;SDS011;34673;52.808;17.856;2022-08-01T12:07:45;4.78;;;2.60;;
48853;SDS011;34673;52.808;17.856;2022-08-01T12:10:18;3.70;;;2.25;;
48853;SDS011;34673;52.808;17.856;2022-08-01T12:12:47;4.63;;;2.17;;
48853;SDS011;34673;52.808;17.856;2022-08-01T12:17:49;4.35;;;2.40;;
48853;SDS011;34673;52.808;17.856;2022-08-01T12:20:26;3.58;;;2.15;;
48853;SDS011;34673;52.808;17.856;2022-08-01T12:22:59;4.78;;;2.53;;
48853;SDS011;34673;52.808;17.856;2022-08-01T12:25:28;4.35;;;2.22;;
48853;SDS011;34673;52.808;17.856;2022-08-01T12:27:59;4.32;;;2.63;;
48853;SDS011;34673;52.808;17.856;2022-08-01T12:30:32;5.25;;;2.67;;
48853;SDS011;34673;52.808;17.856;2022-08-01T12:33:03;7.07;;;2.60;;
48853;SDS011;34673;52.808;17.856;2022-08-01T12:35:33;5.90;;;2.47;;
48853;SDS011;34673;52.808;17.856;2022-08-01T12:38:04;3.60;;;2.50;;
48853;SDS011;34673;52.808;17.856;2022-08-01T12:40:41;3.72;;;2.47;;
48853;SDS011;34673;52.808;17.856;2022-08-01T12:43:15;5.38;;;2.80;;
48853;SDS011;34673;52.808;17.856;2022-08-01T12:45:53;5.75;;;3.15;;
48853;SDS011;34673;52.808;17.856;2022-08-01T12:48:23;5.05;;;2.83;;
48853;SDS011;34673;52.808;17.856;2022-08-01T12:50:52;7.50;;;3.00;;
48853;SDS011;34673;52.808;17.856;2022-08-01T12:53:23;5.10;;;3.30;;
48853;SDS011;34673;52.808;17.856;2022-08-01T12:56:06;4.55;;;3.20;;
48853;SDS011;34673;52.808;17.856;2022-08-01T12:58:34;7.65;;;3.40;;
48853;SDS011;34673;52.808;17.856;2022-08-01T13:01:05;5.00;;;2.90;;
48853;SDS011;34673;52.808;17.856;2022-08-01T13:03:34;4.82;;;3.83;;
48853;SDS011;34673;52.808;17.856;2022-08-01T13:06:13;4.88;;;3.60;;
48853;SDS011;34673;52.808;17.856;2022-08-01T13:08:44;6.38;;;3.70;;
48853;SDS011;34673;52.808;17.856;2022-08-01T13:11:13;5.88;;;3.22;;
48853;SDS011;34673;52.808;17.856;2022-08-01T13:13:44;4.82;;;3.20;;
48853;SDS011;34673;52.808;17.856;2022-08-01T13:16:17;7.07;;;3.20;;
48853;SDS011;34673;52.808;17.856;2022-08-01T13:19:06;6.68;;;3.08;;
48853;SDS011;34673;52.808;17.856;2022-08-01T13:21:34;7.28;;;3.10;;
48853;SDS011;34673;52.808;17.856;2022-08-01T13:24:24;6.53;;;3.60;;
48853;SDS011;34673;52.808;17.856;2022-08-01T13:26:53;7.53;;;3.30;;
48853;SDS011;34673;52.808;17.856;2022-08-01T13:29:36;4.53;;;3.05;;
48853;SDS011;34673;52.808;17.856;2022-08-01T13:32:16;6.82;;;3.63;;
48853;SDS011;34673;52.808;17.856;2022-08-01T13:35:06;7.68;;;3.90;;
48853;SDS011;34673;52.808;17.856;2022-08-01T13:37:39;5.30;;;3.63;;
48853;SDS011;34673;52.808;17.856;2022-08-01T13:40:08;5.53;;;3.40;;
48853;SDS011;34673;52.808;17.856;2022-08-01T13:42:37;9.43;;;3.10;;
48853;SDS011;34673;52.808;17.856;2022-08-01T13:45:06;5.75;;;3.75;;
48853;SDS011;34673;52.808;17.856;2022-08-01T13:47:43;6.68;;;4.20;;
48853;SDS011;34673;52.808;17.856;2022-08-01T13:50:31;8.85;;;4.13;;
48853;SDS011;34673;52.808;17.856;2022-08-01T13:52:59;8.65;;;3.53;;
48853;SDS011;34673;52.808;17.856;2022-08-01T13:55:27;5.13;;;3.40;;
48853;SDS011;34673;52.808;17.856;2022-08-01T13:58:01;7.13;;;3.53;;
48853;SDS011;34673;52.808;17.856;2022-08-01T14:00:29;5.38;;;3.83;;
48853;SDS011;34673;52.808;17.856;2022-08-01T14:02:57;9.00;;;4.43;;
48853;SDS011;34673;52.808;17.856;2022-08-01T14:05:24;6.18;;;3.83;;
48853;SDS011;34673;52.808;17.856;2022-08-01T14:07:52;12.85;;;4.18;;
48853;SDS011;34673;52.808;17.856;2022-08-01T14:10:23;8.57;;;3.83;;
48853;SDS011;34673;52.808;17.856;2022-08-01T14:12:51;6.28;;;3.40;;
48853;SDS011;34673;52.808;17.856;2022-08-01T14:15:22;7.32;;;3.72;;
48853;SDS011;34673;52.808;17.856;2022-08-01T14:18:05;11.88;;;3.63;;
48853;SDS011;34673;52.808;17.856;2022-08-01T14:20:35;8.02;;;3.13;;
48853;SDS011;34673;52.808;17.856;2022-08-01T14:23:03;7.60;;;3.40;;
48853;SDS011;34673;52.808;17.856;2022-08-01T14:25:38;4.88;;;3.15;;
48853;SDS011;34673;52.808;17.856;2022-08-01T14:28:26;7.07;;;3.15;;
48853;SDS011;34673;52.808;17.856;2022-08-01T14:30:55;7.57;;;5.30;;
48853;SDS011;34673;52.808;17.856;2022-08-01T14:33:24;6.68;;;4.80;;
48853;SDS011;34673;52.808;17.856;2022-08-01T14:35:52;8.45;;;5.45;;
48853;SDS011;34673;52.808;17.856;2022-08-01T14:38:39;7.35;;;5.05;;
48853;SDS011;34673;52.808;17.856;2022-08-01T14:41:06;7.75;;;5.20;;
48853;SDS011;34673;52.808;17.856;2022-08-01T14:43:33;9.82;;;7.32;;
48853;SDS011;34673;52.808;17.856;2022-08-01T14:46:01;11.07;;;5.80;;
48853;SDS011;34673;52.808;17.856;2022-08-01T14:48:30;5.27;;;4.33;;
48853;SDS011;34673;52.808;17.856;2022-08-01T14:50:58;12.43;;;5.95;;
48853;SDS011;34673;52.808;17.856;2022-08-01T14:53:29;11.88;;;7.22;;
48853;SDS011;34673;52.808;17.856;2022-08-01T14:56:02;9.85;;;5.30;;
48853;SDS011;34673;52.808;17.856;2022-08-01T14:58:30;6.18;;;4.40;;
48853;SDS011;34673;52.808;17.856;2022-08-01T15:00:57;8.35;;;4.32;;
48853;SDS011;34673;52.808;17.856;2022-08-01T15:03:25;8.73;;;4.10;;
48853;SDS011;34673;52.808;17.856;2022-08-01T15:05:52;6.97;;;4.53;;
48853;SDS011;34673;52.808;17.856;2022-08-01T15:08:19;8.10;;;3.95;;
48853;SDS011;34673;52.808;17.856;2022-08-01T15:10:46;7.07;;;3.50;;
48853;SDS011;34673;52.808;17.856;2022-08-01T15:13:14;5.22;;;3.80;;
48853;SDS011;34673;52.808;17.856;2022-08-01T15:15:41;9.27;;;3.85;;
48853;SDS011;34673;52.808;17.856;2022-08-01T15:18:08;7.70;;;3.70;;
48853;SDS011;34673;52.808;17.856;2022-08-01T15:20:35;5.78;;;3.90;;
48853;SDS011;34673;52.808;17.856;2022-08-01T15:23:02;5.35;;;3.97;;
48853;SDS011;34673;52.808;17.856;2022-08-01T15:25:30;8.25;;;4.03;;
48853;SDS011;34673;52.808;17.856;2022-08-01T15:28:10;5.13;;;3.70;;
48853;SDS011;34673;52.808;17.856;2022-08-01T15:30:38;8.05;;;4.72;;
48853;SDS011;34673;52.808;17.856;2022-08-01T15:33:05;7.50;;;4.28;;
48853;SDS011;34673;52.808;17.856;2022-08-01T15:35:32;7.47;;;4.03;;
48853;SDS011;34673;52.808;17.856;2022-08-01T15:38:00;6.97;;;4.05;;
48853;SDS011;34673;52.808;17.856;2022-08-01T15:40:27;6.82;;;4.03;;
48853;SDS011;34673;52.808;17.856;2022-08-01T15:42:55;7.32;;;3.60;;
48853;SDS011;34673;52.808;17.856;2022-08-01T15:45:22;8.52;;;4.30;;
48853;SDS011;34673;52.808;17.856;2022-08-01T15:48:09;6.35;;;4.07;;
48853;SDS011;34673;52.808;17.856;2022-08-01T15:50:36;6.00;;;4.40;;
48853;SDS011;34673;52.808;17.856;2022-08-01T15:53:05;4.75;;;3.65;;
48853;SDS011;34673;52.808;17.856;2022-08-01T15:55:36;7.20;;;3.90;;
48853;SDS011;34673;52.808;17.856;2022-08-01T15:58:05;6.38;;;3.70;;
48853;SDS011;34673;52.808;17.856;2022-08-01T16:00:33;6.53;;;3.83;;
48853;SDS011;34673;52.808;17.856;2022-08-01T16:03:05;5.88;;;3.60;;
48853;SDS011;34673;52.808;17.856;2022-08-01T16:05:32;5.63;;;3.70;;
48853;SDS011;34673;52.808;17.856;2022-08-01T16:08:09;9.27;;;4.00;;